sensor_id;sensor_type;location;lat;lon;timestamp;P1;durP1;ratioP1;P2;durP2;ratioP2
74892;SDS011;63446;56.272;43.922;2024-01-25T00:01:46;20.47;;;6.63;;
74892;SDS011;63446;56.272;43.922;2024-01-25T00:04:13;19.45;;;6.65;;
74892;SDS011;63446;56.272;43.922;2024-01-25T00:06:39;22.27;;;6.35;;
74892;SDS011;63446;56.272;43.922;2024-01-25T00:09:05;19.67;;;6.50;;
74892;SDS011;63446;56.272;43.922;2024-01-25T00:11:31;16.55;;;6.25;;
74892;SDS011;63446;56.272;43.922;2024-01-25T00:13:57;20.02;;;6.90;;
74892;SDS011;63446;56.272;43.922;2024-01-25T00:16:24;18.60;;;6.93;;
74892;SDS011;63446;56.272;43.922;2024-01-25T00:18:50;19.87;;;6.70;;
74892;SDS011;63446;56.272;43.922;2024-01-25T00:21:16;20.67;;;6.82;;
74892;SDS011;63446;56.272;43.922;2024-01-25T00:23:42;17.60;;;6.35;;
74892;SDS011;63446;56.272;43.922;2024-01-25T00:26:08;21.20;;;6.80;;
74892;SDS011;63446;56.272;43.922;2024-01-25T00:28:34;21.75;;;6.65;;
74892;SDS011;63446;56.272;43.922;2024-01-25T00:31:00;23.20;;;6.40;;
74892;SDS011;63446;56.272;43.922;2024-01-25T00:33:26;19.70;;;7.03;;
74892;SDS011;63446;56.272;43.922;2024-01-25T00:35:52;20.08;;;7.28;;
74892;SDS011;63446;56.272;43.922;2024-01-25T00:38:18;18.20;;;5.55;;
74892;SDS011;63446;56.272;43.922;2024-01-25T00:40:44;18.67;;;7.03;;
74892;SDS011;63446;56.272;43.922;2024-01-25T00:43:10;21.08;;;6.70;;
74892;SDS011;63446;56.272;43.922;2024-01-25T00:45:36;20.95;;;7.10;;
74892;SDS011;63446;56.272;43.922;2024-01-25T00:48:03;21.23;;;6.50;;
74892;SDS011;63446;56.272;43.922;2024-01-25T00:50:30;21.07;;;7.07;;
74892;SDS011;63446;56.272;43.922;2024-01-25T00:52:56;19.65;;;6.88;;
74892;SDS011;63446;56.272;43.922;2024-01-25T00:55:22;19.92;;;7.00;;
74892;SDS011;63446;56.272;43.922;2024-01-25T00:57:48;21.40;;;7.25;;
74892;SDS011;63446;56.272;43.922;2024-01-25T01:00:14;22.73;;;7.72;;
74892;SDS011;63446;56.272;43.922;2024-01-25T01:02:44;22.70;;;7.13;;
74892;SDS011;63446;56.272;43.922;2024-01-25T01:05:11;20.15;;;6.93;;
74892;SDS011;63446;56.272;43.922;2024-01-25T01:07:38;19.40;;;6.70;;
74892;SDS011;63446;56.272;43.922;2024-01-25T01:10:08;23.17;;;7.65;;
74892;SDS011;63446;56.272;43.922;2024-01-25T01:12:35;21.90;;;7.93;;
74892;SDS011;63446;56.272;43.922;2024-01-25T01:15:01;21.73;;;7.53;;
74892;SDS011;63446;56.272;43.922;2024-01-25T01:17:31;21.70;;;6.90;;
74892;SDS011;63446;56.272;43.922;2024-01-25T01:19:58;20.48;;;8.15;;
74892;SDS011;63446;56.272;43.922;2024-01-25T01:22:23;22.80;;;7.87;;
74892;SDS011;63446;56.272;43.922;2024-01-25T01:24:49;24.85;;;7.97;;
74892;SDS011;63446;56.272;43.922;2024-01-25T01:27:15;24.33;;;7.63;;
74892;SDS011;63446;56.272;43.922;2024-01-25T01:29:42;23.80;;;7.75;;
74892;SDS011;63446;56.272;43.922;2024-01-25T01:32:08;23.80;;;8.00;;
74892;SDS011;63446;56.272;43.922;2024-01-25T01:34:34;23.90;;;8.23;;
74892;SDS011;63446;56.272;43.922;2024-01-25T01:37:00;24.90;;;8.00;;
74892;SDS011;63446;56.272;43.922;2024-01-25T01:39:26;23.83;;;7.88;;
74892;SDS011;63446;56.272;43.922;2024-01-25T01:41:52;21.42;;;6.75;;
74892;SDS011;63446;56.272;43.922;2024-01-25T01:44:18;21.17;;;7.73;;
74892;SDS011;63446;56.272;43.922;2024-01-25T01:46:44;19.80;;;7.07;;
74892;SDS011;63446;56.272;43.922;2024-01-25T01:49:11;21.70;;;7.38;;
74892;SDS011;63446;56.272;43.922;2024-01-25T01:51:37;21.13;;;7.03;;
74892;SDS011;63446;56.272;43.922;2024-01-25T01:54:06;20.40;;;7.13;;
74892;SDS011;63446;56.272;43.922;2024-01-25T01:56:32;21.35;;;7.60;;
74892;SDS011;63446;56.272;43.922;2024-01-25T01:58:59;23.10;;;7.30;;
74892;SDS011;63446;56.272;43.922;2024-01-25T02:01:26;17.77;;;6.73;;
74892;SDS011;63446;56.272;43.922;2024-01-25T02:03:53;24.83;;;7.43;;
74892;SDS011;63446;56.272;43.922;2024-01-25T02:06:19;23.90;;;7.70;;
74892;SDS011;63446;56.272;43.922;2024-01-25T02:08:46;20.98;;;7.15;;
74892;SDS011;63446;56.272;43.922;2024-01-25T02:11:14;20.08;;;7.05;;
74892;SDS011;63446;56.272;43.922;2024-01-25T02:13:40;23.93;;;7.40;;
74892;SDS011;63446;56.272;43.922;2024-01-25T02:16:07;22.17;;;7.70;;
74892;SDS011;63446;56.272;43.922;2024-01-25T02:18:54;21.77;;;7.55;;
74892;SDS011;63446;56.272;43.922;2024-01-25T02:21:22;22.63;;;7.88;;
74892;SDS011;63446;56.272;43.922;2024-01-25T02:23:49;21.00;;;7.13;;
74892;SDS011;63446;56.272;43.922;2024-01-25T02:26:15;22.00;;;7.53;;
74892;SDS011;63446;56.272;43.922;2024-01-25T02:28:41;22.98;;;7.40;;
74892;SDS011;63446;56.272;43.922;2024-01-25T02:31:07;23.50;;;7.55;;
74892;SDS011;63446;56.272;43.922;2024-01-25T02:33:33;24.77;;;8.00;;
74892;SDS011;63446;56.272;43.922;2024-01-25T02:35:59;19.30;;;6.75;;
74892;SDS011;63446;56.272;43.922;2024-01-25T02:38:25;18.57;;;6.57;;
74892;SDS011;63446;56.272;43.922;2024-01-25T02:40:51;22.27;;;7.68;;
74892;SDS011;63446;56.272;43.922;2024-01-25T02:43:19;23.63;;;7.00;;
74892;SDS011;63446;56.272;43.922;2024-01-25T02:45:46;20.50;;;7.85;;
74892;SDS011;63446;56.272;43.922;2024-01-25T02:48:14;20.90;;;7.68;;
74892;SDS011;63446;56.272;43.922;2024-01-25T02:50:40;21.23;;;7.10;;
74892;SDS011;63446;56.272;43.922;2024-01-25T02:53:06;18.35;;;6.70;;
74892;SDS011;63446;56.272;43.922;2024-01-25T02:55:32;19.23;;;6.97;;
74892;SDS011;63446;56.272;43.922;2024-01-25T02:57:59;18.27;;;7.35;;
74892;SDS011;63446;56.272;43.922;2024-01-25T03:00:26;24.57;;;7.57;;
74892;SDS011;63446;56.272;43.922;2024-01-25T03:02:53;19.98;;;7.45;;
74892;SDS011;63446;56.272;43.922;2024-01-25T03:05:19;23.42;;;7.60;;
74892;SDS011;63446;56.272;43.922;2024-01-25T03:07:44;18.53;;;6.83;;
74892;SDS011;63446;56.272;43.922;2024-01-25T03:10:11;24.45;;;7.72;;
74892;SDS011;63446;56.272;43.922;2024-01-25T03:12:37;24.52;;;8.02;;
74892;SDS011;63446;56.272;43.922;2024-01-25T03:15:03;23.20;;;7.93;;
74892;SDS011;63446;56.272;43.922;2024-01-25T03:17:31;19.02;;;7.60;;
74892;SDS011;63446;56.272;43.922;2024-01-25T03:19:57;22.83;;;8.17;;
74892;SDS011;63446;56.272;43.922;2024-01-25T03:22:22;22.60;;;7.63;;
74892;SDS011;63446;56.272;43.922;2024-01-25T03:24:49;28.13;;;7.55;;
74892;SDS011;63446;56.272;43.922;2024-01-25T03:27:15;23.73;;;7.97;;
74892;SDS011;63446;56.272;43.922;2024-01-25T03:29:42;23.43;;;7.40;;
74892;SDS011;63446;56.272;43.922;2024-01-25T03:32:11;25.20;;;8.57;;
74892;SDS011;63446;56.272;43.922;2024-01-25T03:34:36;20.30;;;7.63;;
74892;SDS011;63446;56.272;43.922;2024-01-25T03:37:02;25.58;;;8.07;;
74892;SDS011;63446;56.272;43.922;2024-01-25T03:39:28;22.27;;;7.75;;
74892;SDS011;63446;56.272;43.922;2024-01-25T03:41:54;20.67;;;7.13;;
74892;SDS011;63446;56.272;43.922;2024-01-25T03:44:20;22.63;;;8.00;;
74892;SDS011;63446;56.272;43.922;2024-01-25T03:46:46;23.93;;;7.73;;
74892;SDS011;63446;56.272;43.922;2024-01-25T03:49:12;23.08;;;8.00;;
74892;SDS011;63446;56.272;43.922;2024-01-25T03:51:38;24.45;;;9.07;;
74892;SDS011;63446;56.272;43.922;2024-01-25T03:54:03;22.43;;;8.03;;
74892;SDS011;63446;56.272;43.922;2024-01-25T03:56:29;26.35;;;7.95;;
74892;SDS011;63446;56.272;43.922;2024-01-25T03:58:55;19.60;;;7.10;;
74892;SDS011;63446;56.272;43.922;2024-01-25T04:01:21;26.67;;;8.07;;
74892;SDS011;63446;56.272;43.922;2024-01-25T04:03:47;27.67;;;8.43;;
74892;SDS011;63446;56.272;43.922;2024-01-25T04:06:12;19.63;;;6.88;;
74892;SDS011;63446;56.272;43.922;2024-01-25T04:08:39;25.95;;;7.10;;
74892;SDS011;63446;56.272;43.922;2024-01-25T04:11:05;23.65;;;7.13;;
74892;SDS011;63446;56.272;43.922;2024-01-25T04:13:31;24.23;;;7.80;;
74892;SDS011;63446;56.272;43.922;2024-01-25T04:15:57;23.90;;;8.07;;
74892;SDS011;63446;56.272;43.922;2024-01-25T04:18:22;24.35;;;7.18;;
74892;SDS011;63446;56.272;43.922;2024-01-25T04:20:48;23.02;;;8.02;;
74892;SDS011;63446;56.272;43.922;2024-01-25T04:23:16;22.52;;;7.55;;
74892;SDS011;63446;56.272;43.922;2024-01-25T04:25:42;23.25;;;8.18;;
74892;SDS011;63446;56.272;43.922;2024-01-25T04:28:09;20.77;;;7.60;;
74892;SDS011;63446;56.272;43.922;2024-01-25T04:30:34;22.33;;;7.73;;
74892;SDS011;63446;56.272;43.922;2024-01-25T04:33:00;21.63;;;8.02;;
74892;SDS011;63446;56.272;43.922;2024-01-25T04:35:28;20.63;;;7.32;;
74892;SDS011;63446;56.272;43.922;2024-01-25T04:37:54;21.55;;;7.53;;
74892;SDS011;63446;56.272;43.922;2024-01-25T04:40:19;20.30;;;8.27;;
74892;SDS011;63446;56.272;43.922;2024-01-25T04:42:45;22.33;;;8.43;;
74892;SDS011;63446;56.272;43.922;2024-01-25T04:45:11;21.25;;;7.80;;
74892;SDS011;63446;56.272;43.922;2024-01-25T04:47:37;22.15;;;7.95;;
74892;SDS011;63446;56.272;43.922;2024-01-25T04:50:05;21.90;;;8.10;;
74892;SDS011;63446;56.272;43.922;2024-01-25T04:52:33;19.90;;;7.70;;
74892;SDS011;63446;56.272;43.922;2024-01-25T04:54:59;20.10;;;7.60;;
74892;SDS011;63446;56.272;43.922;2024-01-25T04:57:25;21.20;;;8.13;;
74892;SDS011;63446;56.272;43.922;2024-01-25T04:59:50;22.85;;;8.05;;
74892;SDS011;63446;56.272;43.922;2024-01-25T05:02:16;21.93;;;6.87;;
74892;SDS011;63446;56.272;43.922;2024-01-25T05:04:43;19.63;;;7.80;;
74892;SDS011;63446;56.272;43.922;2024-01-25T05:07:08;21.40;;;7.07;;
74892;SDS011;63446;56.272;43.922;2024-01-25T05:09:34;23.03;;;8.10;;
74892;SDS011;63446;56.272;43.922;2024-01-25T05:12:00;21.02;;;7.10;;
74892;SDS011;63446;56.272;43.922;2024-01-25T05:14:27;21.30;;;7.47;;
74892;SDS011;63446;56.272;43.922;2024-01-25T05:16:53;21.57;;;6.90;;
74892;SDS011;63446;56.272;43.922;2024-01-25T05:19:19;19.10;;;7.35;;
74892;SDS011;63446;56.272;43.922;2024-01-25T05:21:45;18.60;;;7.03;;
74892;SDS011;63446;56.272;43.922;2024-01-25T05:24:12;18.08;;;6.88;;
74892;SDS011;63446;56.272;43.922;2024-01-25T05:26:37;21.00;;;7.13;;
74892;SDS011;63446;56.272;43.922;2024-01-25T05:29:04;20.43;;;6.50;;
74892;SDS011;63446;56.272;43.922;2024-01-25T05:31:29;20.10;;;6.90;;
74892;SDS011;63446;56.272;43.922;2024-01-25T05:33:55;20.02;;;7.15;;
74892;SDS011;63446;56.272;43.922;2024-01-25T05:36:21;21.80;;;6.97;;
74892;SDS011;63446;56.272;43.922;2024-01-25T05:38:47;16.70;;;5.50;;
74892;SDS011;63446;56.272;43.922;2024-01-25T05:41:13;20.13;;;6.80;;
74892;SDS011;63446;56.272;43.922;2024-01-25T05:43:39;19.67;;;6.88;;
74892;SDS011;63446;56.272;43.922;2024-01-25T05:46:04;17.65;;;7.07;;
74892;SDS011;63446;56.272;43.922;2024-01-25T05:48:31;21.00;;;7.43;;
74892;SDS011;63446;56.272;43.922;2024-01-25T05:50:57;19.73;;;7.00;;
74892;SDS011;63446;56.272;43.922;2024-01-25T05:53:23;23.08;;;7.43;;
74892;SDS011;63446;56.272;43.922;2024-01-25T05:55:48;19.88;;;7.40;;
74892;SDS011;63446;56.272;43.922;2024-01-25T05:58:14;20.83;;;6.97;;
74892;SDS011;63446;56.272;43.922;2024-01-25T06:00:40;18.27;;;7.73;;
74892;SDS011;63446;56.272;43.922;2024-01-25T06:03:08;20.20;;;6.80;;
74892;SDS011;63446;56.272;43.922;2024-01-25T06:05:34;21.27;;;7.32;;
74892;SDS011;63446;56.272;43.922;2024-01-25T06:08:00;18.48;;;6.47;;
74892;SDS011;63446;56.272;43.922;2024-01-25T06:10:26;16.07;;;5.83;;
74892;SDS011;63446;56.272;43.922;2024-01-25T06:12:52;15.13;;;5.78;;
74892;SDS011;63446;56.272;43.922;2024-01-25T06:15:17;16.93;;;6.37;;
74892;SDS011;63446;56.272;43.922;2024-01-25T06:17:43;17.35;;;6.32;;
74892;SDS011;63446;56.272;43.922;2024-01-25T06:20:09;16.53;;;5.77;;
74892;SDS011;63446;56.272;43.922;2024-01-25T06:22:38;20.75;;;7.18;;
74892;SDS011;63446;56.272;43.922;2024-01-25T06:25:04;17.42;;;6.47;;
74892;SDS011;63446;56.272;43.922;2024-01-25T06:27:30;16.00;;;6.00;;
74892;SDS011;63446;56.272;43.922;2024-01-25T06:29:57;21.13;;;6.55;;
74892;SDS011;63446;56.272;43.922;2024-01-25T06:32:23;15.35;;;5.88;;
74892;SDS011;63446;56.272;43.922;2024-01-25T06:34:48;18.47;;;5.93;;
74892;SDS011;63446;56.272;43.922;2024-01-25T06:37:14;18.13;;;6.55;;
74892;SDS011;63446;56.272;43.922;2024-01-25T06:39:41;17.57;;;6.27;;
74892;SDS011;63446;56.272;43.922;2024-01-25T06:42:07;23.17;;;6.82;;
74892;SDS011;63446;56.272;43.922;2024-01-25T06:44:33;17.48;;;6.45;;
74892;SDS011;63446;56.272;43.922;2024-01-25T06:46:59;15.53;;;5.60;;
74892;SDS011;63446;56.272;43.922;2024-01-25T06:49:24;16.73;;;5.78;;
74892;SDS011;63446;56.272;43.922;2024-01-25T06:51:50;18.67;;;6.53;;
74892;SDS011;63446;56.272;43.922;2024-01-25T06:54:17;19.23;;;6.32;;
74892;SDS011;63446;56.272;43.922;2024-01-25T06:56:43;17.60;;;6.07;;
74892;SDS011;63446;56.272;43.922;2024-01-25T06:59:08;16.42;;;6.57;;
74892;SDS011;63446;56.272;43.922;2024-01-25T07:01:34;15.90;;;6.73;;
74892;SDS011;63446;56.272;43.922;2024-01-25T07:04:00;16.70;;;6.43;;
74892;SDS011;63446;56.272;43.922;2024-01-25T07:06:26;18.03;;;6.97;;
74892;SDS011;63446;56.272;43.922;2024-01-25T07:08:52;20.60;;;7.07;;
74892;SDS011;63446;56.272;43.922;2024-01-25T07:11:19;15.00;;;5.68;;
74892;SDS011;63446;56.272;43.922;2024-01-25T07:13:45;15.20;;;5.95;;
74892;SDS011;63446;56.272;43.922;2024-01-25T07:16:11;15.88;;;5.95;;
74892;SDS011;63446;56.272;43.922;2024-01-25T07:18:37;16.37;;;5.80;;
74892;SDS011;63446;56.272;43.922;2024-01-25T07:21:03;15.00;;;5.32;;
74892;SDS011;63446;56.272;43.922;2024-01-25T07:23:33;14.32;;;5.70;;
74892;SDS011;63446;56.272;43.922;2024-01-25T07:25:59;15.15;;;5.20;;
74892;SDS011;63446;56.272;43.922;2024-01-25T07:28:25;15.27;;;5.70;;
74892;SDS011;63446;56.272;43.922;2024-01-25T07:30:51;14.25;;;5.40;;
74892;SDS011;63446;56.272;43.922;2024-01-25T07:33:17;13.67;;;5.80;;
74892;SDS011;63446;56.272;43.922;2024-01-25T07:35:42;13.23;;;5.38;;
74892;SDS011;63446;56.272;43.922;2024-01-25T07:38:12;14.97;;;5.63;;
74892;SDS011;63446;56.272;43.922;2024-01-25T07:40:37;18.25;;;5.65;;
74892;SDS011;63446;56.272;43.922;2024-01-25T07:43:03;16.02;;;6.20;;
74892;SDS011;63446;56.272;43.922;2024-01-25T07:45:31;16.88;;;5.57;;
74892;SDS011;63446;56.272;43.922;2024-01-25T07:47:57;14.43;;;5.03;;
74892;SDS011;63446;56.272;43.922;2024-01-25T07:50:23;14.52;;;5.57;;
74892;SDS011;63446;56.272;43.922;2024-01-25T07:52:49;16.10;;;5.93;;
74892;SDS011;63446;56.272;43.922;2024-01-25T07:55:16;12.17;;;4.93;;
74892;SDS011;63446;56.272;43.922;2024-01-25T07:57:42;15.80;;;5.05;;
74892;SDS011;63446;56.272;43.922;2024-01-25T08:00:08;11.80;;;4.63;;
74892;SDS011;63446;56.272;43.922;2024-01-25T08:02:35;14.10;;;5.15;;
74892;SDS011;63446;56.272;43.922;2024-01-25T08:05:02;16.13;;;5.33;;
74892;SDS011;63446;56.272;43.922;2024-01-25T08:07:30;14.45;;;4.82;;
74892;SDS011;63446;56.272;43.922;2024-01-25T08:09:56;12.82;;;5.07;;
74892;SDS011;63446;56.272;43.922;2024-01-25T08:12:24;14.75;;;5.25;;
74892;SDS011;63446;56.272;43.922;2024-01-25T08:14:51;14.40;;;5.00;;
74892;SDS011;63446;56.272;43.922;2024-01-25T08:17:17;11.70;;;4.60;;
74892;SDS011;63446;56.272;43.922;2024-01-25T08:19:43;15.27;;;5.50;;
74892;SDS011;63446;56.272;43.922;2024-01-25T08:22:09;13.02;;;4.40;;
74892;SDS011;63446;56.272;43.922;2024-01-25T08:24:35;13.23;;;4.90;;
74892;SDS011;63446;56.272;43.922;2024-01-25T08:27:01;12.95;;;4.68;;
74892;SDS011;63446;56.272;43.922;2024-01-25T08:29:27;17.55;;;5.65;;
74892;SDS011;63446;56.272;43.922;2024-01-25T08:31:53;15.20;;;5.30;;
74892;SDS011;63446;56.272;43.922;2024-01-25T08:34:19;15.43;;;5.05;;
74892;SDS011;63446;56.272;43.922;2024-01-25T08:36:47;15.93;;;4.93;;
74892;SDS011;63446;56.272;43.922;2024-01-25T08:39:13;13.37;;;4.73;;
74892;SDS011;63446;56.272;43.922;2024-01-25T08:41:41;11.73;;;4.47;;
74892;SDS011;63446;56.272;43.922;2024-01-25T08:44:08;13.27;;;4.60;;
74892;SDS011;63446;56.272;43.922;2024-01-25T08:46:35;12.07;;;4.47;;
74892;SDS011;63446;56.272;43.922;2024-01-25T08:49:01;12.93;;;4.78;;
74892;SDS011;63446;56.272;43.922;2024-01-25T08:51:34;14.00;;;5.73;;
74892;SDS011;63446;56.272;43.922;2024-01-25T08:53:59;13.38;;;5.22;;
74892;SDS011;63446;56.272;43.922;2024-01-25T08:56:26;16.35;;;5.35;;
74892;SDS011;63446;56.272;43.922;2024-01-25T08:58:52;16.27;;;5.70;;
74892;SDS011;63446;56.272;43.922;2024-01-25T09:01:18;14.55;;;6.07;;
74892;SDS011;63446;56.272;43.922;2024-01-25T09:03:44;12.93;;;3.88;;
74892;SDS011;63446;56.272;43.922;2024-01-25T09:06:10;10.83;;;4.33;;
74892;SDS011;63446;56.272;43.922;2024-01-25T09:08:36;13.70;;;4.60;;
74892;SDS011;63446;56.272;43.922;2024-01-25T09:11:02;15.57;;;4.68;;
74892;SDS011;63446;56.272;43.922;2024-01-25T09:13:28;13.10;;;4.50;;
74892;SDS011;63446;56.272;43.922;2024-01-25T09:15:55;13.27;;;4.65;;
74892;SDS011;63446;56.272;43.922;2024-01-25T09:18:21;16.23;;;4.88;;
74892;SDS011;63446;56.272;43.922;2024-01-25T09:20:47;17.92;;;5.60;;
74892;SDS011;63446;56.272;43.922;2024-01-25T09:23:14;12.73;;;4.30;;
74892;SDS011;63446;56.272;43.922;2024-01-25T09:25:43;15.30;;;4.97;;
74892;SDS011;63446;56.272;43.922;2024-01-25T09:28:10;10.82;;;4.05;;
74892;SDS011;63446;56.272;43.922;2024-01-25T09:30:39;13.52;;;4.45;;
74892;SDS011;63446;56.272;43.922;2024-01-25T09:33:06;13.97;;;4.50;;
74892;SDS011;63446;56.272;43.922;2024-01-25T09:35:32;16.67;;;5.85;;
74892;SDS011;63446;56.272;43.922;2024-01-25T09:37:58;16.05;;;5.55;;
74892;SDS011;63446;56.272;43.922;2024-01-25T09:40:23;13.10;;;4.83;;
74892;SDS011;63446;56.272;43.922;2024-01-25T09:42:49;15.32;;;4.60;;
74892;SDS011;63446;56.272;43.922;2024-01-25T09:45:18;16.05;;;5.25;;
74892;SDS011;63446;56.272;43.922;2024-01-25T09:47:45;13.68;;;5.40;;
74892;SDS011;63446;56.272;43.922;2024-01-25T09:50:12;13.17;;;5.07;;
74892;SDS011;63446;56.272;43.922;2024-01-25T09:52:38;14.43;;;4.97;;
74892;SDS011;63446;56.272;43.922;2024-01-25T09:55:04;13.02;;;4.97;;
74892;SDS011;63446;56.272;43.922;2024-01-25T09:57:32;17.55;;;5.57;;
74892;SDS011;63446;56.272;43.922;2024-01-25T10:00:04;12.48;;;4.47;;
74892;SDS011;63446;56.272;43.922;2024-01-25T10:02:37;12.30;;;4.93;;
74892;SDS011;63446;56.272;43.922;2024-01-25T10:05:04;13.65;;;4.97;;
74892;SDS011;63446;56.272;43.922;2024-01-25T10:07:43;15.95;;;5.18;;
74892;SDS011;63446;56.272;43.922;2024-01-25T10:10:11;11.80;;;4.55;;
74892;SDS011;63446;56.272;43.922;2024-01-25T10:12:40;11.55;;;4.22;;
74892;SDS011;63446;56.272;43.922;2024-01-25T10:15:09;10.23;;;3.83;;
74892;SDS011;63446;56.272;43.922;2024-01-25T10:17:36;12.73;;;4.18;;
74892;SDS011;63446;56.272;43.922;2024-01-25T10:20:04;14.77;;;5.22;;
74892;SDS011;63446;56.272;43.922;2024-01-25T10:22:37;11.05;;;4.43;;
74892;SDS011;63446;56.272;43.922;2024-01-25T10:25:11;14.68;;;5.25;;
74892;SDS011;63446;56.272;43.922;2024-01-25T10:27:38;11.67;;;4.50;;
74892;SDS011;63446;56.272;43.922;2024-01-25T10:30:09;12.25;;;4.20;;
74892;SDS011;63446;56.272;43.922;2024-01-25T10:32:36;10.82;;;4.25;;
74892;SDS011;63446;56.272;43.922;2024-01-25T10:35:02;14.25;;;4.55;;
74892;SDS011;63446;56.272;43.922;2024-01-25T10:37:30;11.13;;;4.73;;
74892;SDS011;63446;56.272;43.922;2024-01-25T10:39:56;12.32;;;4.65;;
74892;SDS011;63446;56.272;43.922;2024-01-25T10:42:25;13.40;;;4.25;;
74892;SDS011;63446;56.272;43.922;2024-01-25T10:44:51;13.07;;;4.50;;
74892;SDS011;63446;56.272;43.922;2024-01-25T10:47:17;12.98;;;4.15;;
74892;SDS011;63446;56.272;43.922;2024-01-25T10:49:46;10.93;;;4.45;;
74892;SDS011;63446;56.272;43.922;2024-01-25T10:52:12;12.05;;;4.75;;
74892;SDS011;63446;56.272;43.922;2024-01-25T10:54:38;11.38;;;4.78;;
74892;SDS011;63446;56.272;43.922;2024-01-25T10:57:05;11.23;;;4.82;;
74892;SDS011;63446;56.272;43.922;2024-01-25T10:59:32;12.50;;;5.03;;
74892;SDS011;63446;56.272;43.922;2024-01-25T11:02:00;13.63;;;4.78;;
74892;SDS011;63446;56.272;43.922;2024-01-25T11:04:26;13.68;;;4.80;;
74892;SDS011;63446;56.272;43.922;2024-01-25T11:06:52;15.40;;;5.38;;
74892;SDS011;63446;56.272;43.922;2024-01-25T11:09:19;12.20;;;4.97;;
74892;SDS011;63446;56.272;43.922;2024-01-25T11:11:47;17.47;;;4.97;;
74892;SDS011;63446;56.272;43.922;2024-01-25T11:14:16;12.75;;;4.63;;
74892;SDS011;63446;56.272;43.922;2024-01-25T11:16:45;15.25;;;5.38;;
74892;SDS011;63446;56.272;43.922;2024-01-25T11:19:19;15.50;;;6.00;;
74892;SDS011;63446;56.272;43.922;2024-01-25T11:21:49;15.52;;;5.40;;
74892;SDS011;63446;56.272;43.922;2024-01-25T11:24:22;13.97;;;5.50;;
74892;SDS011;63446;56.272;43.922;2024-01-25T11:26:53;12.98;;;5.38;;
74892;SDS011;63446;56.272;43.922;2024-01-25T11:29:20;15.57;;;5.47;;
74892;SDS011;63446;56.272;43.922;2024-01-25T11:31:48;16.40;;;5.15;;
74892;SDS011;63446;56.272;43.922;2024-01-25T11:34:15;14.23;;;5.28;;
74892;SDS011;63446;56.272;43.922;2024-01-25T11:36:45;15.33;;;4.80;;
74892;SDS011;63446;56.272;43.922;2024-01-25T11:39:11;14.55;;;5.18;;
74892;SDS011;63446;56.272;43.922;2024-01-25T11:41:38;13.93;;;5.38;;
74892;SDS011;63446;56.272;43.922;2024-01-25T11:44:04;11.52;;;4.70;;
74892;SDS011;63446;56.272;43.922;2024-01-25T11:46:30;12.97;;;4.93;;
74892;SDS011;63446;56.272;43.922;2024-01-25T11:49:00;11.82;;;4.78;;
74892;SDS011;63446;56.272;43.922;2024-01-25T11:51:26;15.83;;;5.60;;
74892;SDS011;63446;56.272;43.922;2024-01-25T11:53:53;16.65;;;5.18;;
74892;SDS011;63446;56.272;43.922;2024-01-25T11:56:26;12.73;;;5.37;;
74892;SDS011;63446;56.272;43.922;2024-01-25T11:58:56;13.85;;;5.53;;
74892;SDS011;63446;56.272;43.922;2024-01-25T12:01:24;16.20;;;5.72;;
74892;SDS011;63446;56.272;43.922;2024-01-25T12:03:50;13.63;;;5.28;;
74892;SDS011;63446;56.272;43.922;2024-01-25T12:06:17;13.67;;;5.93;;
74892;SDS011;63446;56.272;43.922;2024-01-25T12:08:45;12.68;;;4.90;;
74892;SDS011;63446;56.272;43.922;2024-01-25T12:11:14;15.80;;;5.03;;
74892;SDS011;63446;56.272;43.922;2024-01-25T12:13:42;13.80;;;5.60;;
74892;SDS011;63446;56.272;43.922;2024-01-25T12:16:09;14.82;;;5.68;;
74892;SDS011;63446;56.272;43.922;2024-01-25T12:18:35;14.97;;;5.60;;
74892;SDS011;63446;56.272;43.922;2024-01-25T12:21:03;15.30;;;6.25;;
74892;SDS011;63446;56.272;43.922;2024-01-25T12:25:59;16.85;;;5.38;;
74892;SDS011;63446;56.272;43.922;2024-01-25T12:28:27;15.48;;;5.95;;
74892;SDS011;63446;56.272;43.922;2024-01-25T12:30:53;14.77;;;6.40;;
74892;SDS011;63446;56.272;43.922;2024-01-25T12:33:20;13.80;;;5.80;;
74892;SDS011;63446;56.272;43.922;2024-01-25T12:35:46;14.27;;;5.53;;
74892;SDS011;63446;56.272;43.922;2024-01-25T12:38:13;16.23;;;5.25;;
74892;SDS011;63446;56.272;43.922;2024-01-25T12:40:38;13.40;;;5.73;;
74892;SDS011;63446;56.272;43.922;2024-01-25T12:43:04;14.32;;;5.60;;
74892;SDS011;63446;56.272;43.922;2024-01-25T12:45:30;15.90;;;6.00;;
74892;SDS011;63446;56.272;43.922;2024-01-25T12:47:56;14.63;;;5.75;;
74892;SDS011;63446;56.272;43.922;2024-01-25T12:50:23;12.90;;;5.60;;
74892;SDS011;63446;56.272;43.922;2024-01-25T12:52:48;15.93;;;6.40;;
74892;SDS011;63446;56.272;43.922;2024-01-25T12:55:15;14.23;;;5.85;;
74892;SDS011;63446;56.272;43.922;2024-01-25T12:57:41;14.13;;;5.53;;
74892;SDS011;63446;56.272;43.922;2024-01-25T13:00:07;14.90;;;5.70;;
74892;SDS011;63446;56.272;43.922;2024-01-25T13:02:33;15.70;;;6.43;;
74892;SDS011;63446;56.272;43.922;2024-01-25T13:04:59;14.65;;;5.72;;
74892;SDS011;63446;56.272;43.922;2024-01-25T13:07:25;15.07;;;6.10;;
74892;SDS011;63446;56.272;43.922;2024-01-25T13:09:51;14.13;;;5.67;;
74892;SDS011;63446;56.272;43.922;2024-01-25T13:12:17;15.48;;;6.05;;
74892;SDS011;63446;56.272;43.922;2024-01-25T13:14:42;20.57;;;6.50;;
74892;SDS011;63446;56.272;43.922;2024-01-25T13:17:09;13.45;;;5.38;;
74892;SDS011;63446;56.272;43.922;2024-01-25T13:19:34;14.43;;;5.95;;
74892;SDS011;63446;56.272;43.922;2024-01-25T13:22:01;19.03;;;6.43;;
74892;SDS011;63446;56.272;43.922;2024-01-25T13:24:27;16.13;;;6.35;;
74892;SDS011;63446;56.272;43.922;2024-01-25T13:26:53;17.98;;;6.30;;
74892;SDS011;63446;56.272;43.922;2024-01-25T13:29:18;16.10;;;6.73;;
74892;SDS011;63446;56.272;43.922;2024-01-25T13:31:44;20.33;;;7.13;;
74892;SDS011;63446;56.272;43.922;2024-01-25T13:34:10;14.65;;;5.93;;
74892;SDS011;63446;56.272;43.922;2024-01-25T13:36:37;20.35;;;7.57;;
74892;SDS011;63446;56.272;43.922;2024-01-25T13:39:03;20.95;;;7.95;;
74892;SDS011;63446;56.272;43.922;2024-01-25T13:41:29;19.70;;;7.57;;
74892;SDS011;63446;56.272;43.922;2024-01-25T13:43:55;21.13;;;7.40;;
74892;SDS011;63446;56.272;43.922;2024-01-25T13:46:20;22.43;;;8.47;;
74892;SDS011;63446;56.272;43.922;2024-01-25T13:48:46;20.17;;;7.40;;
74892;SDS011;63446;56.272;43.922;2024-01-25T13:51:13;18.97;;;7.57;;
74892;SDS011;63446;56.272;43.922;2024-01-25T13:53:39;18.60;;;7.72;;
74892;SDS011;63446;56.272;43.922;2024-01-25T13:56:05;19.90;;;7.22;;
74892;SDS011;63446;56.272;43.922;2024-01-25T13:58:31;20.63;;;7.40;;
74892;SDS011;63446;56.272;43.922;2024-01-25T14:00:56;19.83;;;6.63;;
74892;SDS011;63446;56.272;43.922;2024-01-25T14:03:22;18.80;;;6.67;;
74892;SDS011;63446;56.272;43.922;2024-01-25T14:05:49;17.13;;;6.40;;
74892;SDS011;63446;56.272;43.922;2024-01-25T14:08:15;17.33;;;6.30;;
74892;SDS011;63446;56.272;43.922;2024-01-25T14:10:42;22.88;;;6.93;;
74892;SDS011;63446;56.272;43.922;2024-01-25T14:13:07;18.70;;;6.95;;
74892;SDS011;63446;56.272;43.922;2024-01-25T14:15:34;18.17;;;7.50;;
74892;SDS011;63446;56.272;43.922;2024-01-25T14:17:59;19.95;;;7.13;;
74892;SDS011;63446;56.272;43.922;2024-01-25T14:20:26;20.23;;;6.43;;